logo tempoitalia

Diretta Meteo Oklahoma City Wiley Post, Stati Uniti (USA)lunedì 31 agosto ore 00:53

Mappa
Sereno 29 °C Sereno 24 Ore: T.min 26 T.max 39
Ponente Sud Km/h 22.2 Punto di rugiada: 15 °C Umidità: 42% Visibilità: 10 Km
Il sole sorge alle: 07:02 Il sole tramonta alle: 19:59
31 Agosto 2026 00:53 tempo osservato: Sereno Sereno 29 42 1014 vento: Nord S 22.2
30 Agosto 2026 23:53 tempo osservato: Sereno Sereno 30 40 1014 vento: Nord S 22.2
30 Agosto 2026 22:53 tempo osservato: Sereno Sereno 31 37 1013 vento: Nord S 25.9
30 Agosto 2026 21:53 tempo osservato: Sereno Sereno 33 36 1013 vento: Nord S 29.6
30 Agosto 2026 20:53 tempo osservato: Sereno Sereno 34 30 1012 vento: Nord S/SE 22.2
30 Agosto 2026 19:53 tempo osservato: Sereno Sereno 35 28 1011 vento: Nord S 18.5
30 Agosto 2026 18:53 tempo osservato: Sereno Sereno 37 25 1011 vento: Nord S 22.2
30 Agosto 2026 17:53 tempo osservato: Sereno Sereno 38 24 1011 vento: Nord S 24
30 Agosto 2026 16:53 tempo osservato: Sereno Sereno 39 22 1011 vento: Nord S 18.5
30 Agosto 2026 15:53 tempo osservato: Poco Nuvoloso Poco Nuvoloso 39 24 1012 vento: Nord S/SO 25.9
30 Agosto 2026 14:53 tempo osservato: Poco Nuvoloso Poco Nuvoloso 39 24 1013 vento: Nord S/SO 25.9
30 Agosto 2026 13:53 tempo osservato: Sereno Sereno 38 25 1014 vento: Nord S/SO 25.9
30 Agosto 2026 12:53 tempo osservato: Sereno Sereno 37 30 1014 vento: Nord S/SO 31.5
30 Agosto 2026 11:53 tempo osservato: Sereno Sereno 37 30 1015 vento: Nord S/SO 31.5
30 Agosto 2026 10:53 tempo osservato: Sereno Sereno 34 38 1015 vento: Nord S/SO 31.5
30 Agosto 2026 09:53 tempo osservato: Sereno Sereno 32 43 1015 vento: Nord S/SO 27.8
30 Agosto 2026 08:53 tempo osservato: Sereno Sereno 29 48 1015 vento: Nord S 27.8
30 Agosto 2026 07:53 tempo osservato: Sereno Sereno 26 54 1015 vento: Nord S 22.2
30 Agosto 2026 06:53 tempo osservato: Sereno Sereno 26 54 1015 vento: Nord S 25.9
30 Agosto 2026 05:53 tempo osservato: Sereno Sereno 26 54 1015 vento: Nord S 20.3
30 Agosto 2026 04:53 tempo osservato: Sereno Sereno 26 54 1014 vento: Nord S 22.2
30 Agosto 2026 03:53 tempo osservato: Sereno Sereno 27 50 1014 vento: Nord S 24
30 Agosto 2026 02:53 tempo osservato: Sereno Sereno 28 45 1014 vento: Nord S/SE 24
30 Agosto 2026 01:53 tempo osservato: Sereno Sereno 28 45 1014 vento: Nord S 22.2